Time;durP1;ratioP1;P1;durP2;ratioP2;P2;SDS_P1;SDS_P2;PMS_P1;PMS_P2;Temp;Humidity;BMP_temperature;BMP_pressure;BME280_temperature;BME280_humidity;BME280_pressure;Samples;Min_cycle;Max_cycle;Signal;HPM_P1;HPM_P2
2023/03/29 00:01:00;;;;;;;7.47;2.72;;;;;;;3.76;71.08;100921.28;4927980;29;20047;-85
2023/03/29 00:03:27;;;;;;;4.72;2.75;;;;;;;3.65;72.20;100918.53;4906614;29;20046;-84
2023/03/29 00:05:56;;;;;;;6.07;2.67;;;;;;;3.69;72.56;100930.66;4925590;29;20197;-85
2023/03/29 00:08:24;;;;;;;5.03;2.40;;;;;;;3.78;72.88;100949.44;4914786;29;20066;-84
2023/03/29 00:10:50;;;;;;;4.13;2.40;;;;;;;3.61;73.24;100935.69;4913551;29;20222;-84
2023/03/29 00:13:16;;;;;;;6.40;2.50;;;;;;;3.47;72.42;100929.53;4914361;29;20075;-84
2023/03/29 00:15:42;;;;;;;4.03;2.35;;;;;;;3.55;72.75;100940.44;4928310;29;20800;-86
2023/03/29 00:18:08;;;;;;;4.03;2.00;;;;;;;3.55;72.25;100961.72;4891228;29;20059;-86
2023/03/29 00:20:39;;;;;;;4.03;2.20;;;;;;;3.57;71.70;100965.13;4929710;29;20076;-85
2023/03/29 00:23:06;;;;;;;4.18;2.33;;;;;;;3.42;72.33;100960.91;4925610;29;20075;-85
2023/03/29 00:25:31;;;;;;;4.43;2.28;;;;;;;3.40;72.70;100962.81;4914493;29;20090;-86
2023/03/29 00:27:57;;;;;;;4.20;2.40;;;;;;;3.36;72.98;100966.63;4941623;29;20083;-85
2023/03/29 00:30:22;;;;;;;7.13;2.50;;;;;;;3.30;73.19;100967.06;4900907;29;20303;-85
2023/03/29 00:32:48;;;;;;;5.13;2.58;;;;;;;3.05;73.82;100936.03;4950945;29;20103;-84
2023/03/29 00:35:15;;;;;;;3.63;2.13;;;;;;;3.05;74.34;100963.44;4948941;29;20216;-84
2023/03/29 00:37:40;;;;;;;3.80;2.60;;;;;;;2.84;75.03;100964.91;4931450;29;20036;-85
2023/03/29 00:40:09;;;;;;;7.53;2.97;;;;;;;2.97;75.02;100971.06;4900910;29;20040;-86
2023/03/29 00:42:35;;;;;;;4.88;2.63;;;;;;;3.07;74.88;100979.28;4910111;29;20262;-86
2023/03/29 00:45:06;;;;;;;6.53;2.55;;;;;;;2.99;75.42;100978.94;4913804;29;20361;-85
2023/03/29 00:47:42;;;;;;;6.75;3.00;;;;;;;3.01;75.08;100977.88;4930392;29;20111;-86
2023/03/29 00:50:13;;;;;;;5.68;2.97;;;;;;;2.89;75.65;100962.78;4924715;29;20103;-84
2023/03/29 00:52:41;;;;;;;5.20;2.80;;;;;;;2.98;75.23;100967.47;4934664;29;20142;-84
2023/03/29 00:55:09;;;;;;;4.80;3.05;;;;;;;2.90;75.47;100953.84;4928367;29;20044;-85
2023/03/29 00:57:36;;;;;;;5.18;2.90;;;;;;;3.02;75.39;100979.59;4903444;29;20035;-84
2023/03/29 01:00:03;;;;;;;5.57;3.00;;;;;;;3.00;75.28;100981.50;4903672;29;20044;-86
2023/03/29 01:02:33;;;;;;;6.47;3.38;;;;;;;3.09;75.65;100991.50;4910898;29;20123;-84
2023/03/29 01:05:24;;;;;;;5.60;3.00;;;;;;;3.08;74.78;100978.31;4927101;29;20399;-85
2023/03/29 01:07:56;;;;;;;9.27;3.10;;;;;;;2.95;75.98;100986.28;4929281;29;20059;-85
2023/03/29 01:10:35;;;;;;;6.00;3.05;;;;;;;3.10;76.03;101000.31;4927871;29;20083;-84
2023/03/29 01:13:05;;;;;;;4.65;3.00;;;;;;;2.99;76.65;100979.78;4930136;29;20094;-83
2023/03/29 01:15:38;;;;;;;5.53;3.08;;;;;;;3.05;76.86;100997.97;4908092;29;20047;-83
2023/03/29 01:18:05;;;;;;;8.35;3.47;;;;;;;3.02;76.47;100982.25;4919930;29;20653;-84
2023/03/29 01:20:37;;;;;;;5.82;3.35;;;;;;;2.91;77.47;100992.75;4910608;29;20749;-84
2023/03/29 01:23:31;;;;;;;5.70;3.17;;;;;;;3.06;77.42;100991.69;4928588;29;20036;-84
2023/03/29 01:26:23;;;;;;;4.63;3.00;;;;;;;3.08;77.02;101005.72;4878368;29;20054;-84
2023/03/29 01:29:03;;;;;;;6.15;3.25;;;;;;;3.05;77.17;100987.34;4911181;29;20051;-84
2023/03/29 01:31:35;;;;;;;6.43;3.50;;;;;;;3.05;76.90;100989.16;4944173;29;20460;-84
2023/03/29 01:34:37;;;;;;;6.53;3.63;;;;;;;3.11;76.92;100999.34;4929952;29;20424;-84
2023/03/29 01:37:23;;;;;;;14.30;3.78;;;;;;;3.13;76.96;101008.94;4920352;29;20075;-85
2023/03/29 01:39:51;;;;;;;6.32;3.78;;;;;;;2.90;77.53;101006.97;4939851;29;20392;-85
2023/03/29 01:42:40;;;;;;;6.78;4.40;;;;;;;2.80;77.75;101016.53;4915811;29;20044;-85
2023/03/29 01:45:09;;;;;;;5.80;3.70;;;;;;;2.78;78.35;101019.28;4913452;29;20048;-85
2023/03/29 01:47:37;;;;;;;7.25;4.10;;;;;;;2.89;77.69;101014.09;4904344;29;20040;-84
2023/03/29 01:50:16;;;;;;;8.65;3.97;;;;;;;2.80;77.19;101016.53;4932455;29;20059;-84
2023/03/29 01:52:47;;;;;;;6.35;4.10;;;;;;;2.77;77.59;101016.75;4901904;29;20047;-84
2023/03/29 01:55:34;;;;;;;8.73;4.30;;;;;;;2.81;77.83;101026.19;4903789;29;20089;-84
2023/03/29 01:58:00;;;;;;;8.27;3.88;;;;;;;2.71;77.80;101028.59;4907661;29;20448;-83
2023/03/29 02:00:28;;;;;;;10.35;4.10;;;;;;;2.70;76.82;101021.59;4923626;29;20068;-84
2023/03/29 02:03:00;;;;;;;6.80;3.80;;;;;;;2.62;76.46;101024.75;4886272;29;20043;-86
2023/03/29 02:05:27;;;;;;;5.80;3.47;;;;;;;2.65;76.13;101023.72;4928600;29;20501;-86
2023/03/29 02:07:53;;;;;;;5.20;3.38;;;;;;;2.72;74.91;101025.00;4908121;29;20119;-85
2023/03/29 02:10:20;;;;;;;6.38;3.22;;;;;;;2.83;73.61;101024.28;4909799;29;20031;-85
2023/03/29 02:12:46;;;;;;;4.90;3.05;;;;;;;2.48;73.07;101012.41;4919716;29;20048;-85
2023/03/29 02:15:17;;;;;;;5.88;3.38;;;;;;;2.59;72.69;101040.88;4910549;29;20480;-84
2023/03/29 02:17:45;;;;;;;6.00;3.30;;;;;;;2.56;72.86;101030.47;4918484;29;20059;-85
2023/03/29 02:20:17;;;;;;;6.00;3.30;;;;;;;2.58;72.85;101023.25;4918712;29;20882;-85
2023/03/29 02:22:48;;;;;;;5.55;2.92;;;;;;;2.61;72.41;101038.13;4900954;29;20073;-84
2023/03/29 02:25:15;;;;;;;5.45;3.15;;;;;;;2.42;72.32;101025.22;4922841;29;20423;-85
2023/03/29 02:27:40;;;;;;;4.95;2.88;;;;;;;2.50;71.92;101028.19;4915814;29;20147;-84
2023/03/29 02:30:07;;;;;;;6.90;3.22;;;;;;;2.53;71.86;101042.13;4884797;29;20058;-83
2023/03/29 02:32:41;;;;;;;6.57;3.15;;;;;;;2.52;71.50;101055.50;4909202;29;20055;-84
2023/03/29 02:35:13;;;;;;;6.18;3.05;;;;;;;2.39;71.60;101046.63;4914987;29;20060;-84
2023/03/29 02:37:43;;;;;;;5.72;2.90;;;;;;;2.61;71.20;101065.53;4906552;29;20047;-85
2023/03/29 02:40:12;;;;;;;6.80;3.40;;;;;;;2.46;71.16;101061.22;4898505;29;20135;-84
2023/03/29 02:42:40;;;;;;;6.35;3.38;;;;;;;2.38;71.46;101058.19;4916429;29;20044;-85
2023/03/29 02:45:07;;;;;;;5.10;2.70;;;;;;;2.45;70.71;101059.50;4920187;29;20043;-84
2023/03/29 02:47:37;;;;;;;5.63;2.92;;;;;;;2.57;70.69;101064.00;4921475;29;20149;-86
2023/03/29 02:50:05;;;;;;;5.53;3.22;;;;;;;2.37;70.20;101065.31;4942221;29;20564;-86
2023/03/29 02:52:34;;;;;;;6.15;3.30;;;;;;;2.40;70.51;101069.56;4894342;29;20052;-84
2023/03/29 02:55:01;;;;;;;5.53;2.92;;;;;;;2.41;70.24;101069.47;4925974;29;20040;-85
2023/03/29 02:57:27;;;;;;;5.57;2.95;;;;;;;2.46;69.63;101077.16;4911500;29;20428;-85
2023/03/29 02:59:56;;;;;;;11.05;3.08;;;;;;;2.44;70.49;101073.72;4893497;29;20044;-84
2023/03/29 03:02:26;;;;;;;6.07;3.92;;;;;;;2.40;71.49;101082.84;4907497;29;20142;-84
2023/03/29 03:04:52;;;;;;;7.80;4.35;;;;;;;2.29;73.61;101071.13;4911997;29;20048;-85
2023/03/29 03:07:18;;;;;;;10.02;5.50;;;;;;;2.22;73.53;101061.81;4927014;29;20052;-86
2023/03/29 03:09:45;;;;;;;7.28;4.63;;;;;;;2.37;73.96;101099.81;4935296;29;20055;-84
2023/03/29 03:12:10;;;;;;;;;;;;;;;2.35;74.01;101103.50;4928280;29;20087;-85
2023/03/29 03:14:36;;;;;;;;;;;;;;;2.16;74.63;101107.31;4923884;29;19922;-86
2023/03/29 03:17:01;;;;;;;7.20;4.00;;;;;;;1.96;74.82;101115.66;4928320;29;19923;-85
2023/03/29 03:19:27;;;;;;;11.15;4.07;;;;;;;1.87;75.03;101102.03;4926195;29;20468;-85
2023/03/29 03:21:52;;;;;;;8.27;4.37;;;;;;;2.02;74.67;101104.69;4927367;29;20055;-85
2023/03/29 03:24:18;;;;;;;6.33;3.77;;;;;;;1.77;75.13;101108.81;4913289;29;20850;-84
2023/03/29 03:26:45;;;;;;;7.73;4.03;;;;;;;1.67;75.24;101079.38;4926027;29;20295;-84
2023/03/29 03:29:12;;;;;;;7.57;4.22;;;;;;;1.56;74.99;101078.31;4925593;29;20170;-85
2023/03/29 03:31:40;;;;;;;6.68;3.95;;;;;;;1.69;75.24;101109.28;4923198;29;20044;-84
2023/03/29 03:34:08;;;;;;;7.65;3.85;;;;;;;1.69;75.42;101109.28;4903832;29;20048;-86
2023/03/29 03:36:34;;;;;;;7.78;4.85;;;;;;;1.54;75.86;101125.25;4919680;29;20043;-85
2023/03/29 03:39:04;;;;;;;8.07;5.35;;;;;;;1.56;75.68;101112.78;4912147;29;20484;-83
2023/03/29 03:41:33;;;;;;;10.57;5.38;;;;;;;1.63;75.61;101119.41;4920178;29;20051;-85
2023/03/29 03:43:59;;;;;;;8.40;4.70;;;;;;;1.59;75.72;101131.13;4920418;29;20058;-84
2023/03/29 03:46:25;;;;;;;8.27;4.70;;;;;;;1.47;75.82;101099.13;4907795;29;20126;-84
2023/03/29 03:48:52;;;;;;;8.77;4.40;;;;;;;1.50;75.47;101121.94;4944868;29;20044;-84
2023/03/29 03:51:20;;;;;;;9.20;4.35;;;;;;;1.43;76.44;101129.41;4928200;29;20058;-85
2023/03/29 03:53:47;;;;;;;7.38;4.20;;;;;;;1.31;76.66;101110.72;4911434;29;20106;-85
2023/03/29 03:56:15;;;;;;;7.38;3.80;;;;;;;1.19;76.66;101112.28;4930507;29;20067;-85
2023/03/29 03:58:43;;;;;;;7.78;4.50;;;;;;;1.39;76.22;101127.88;4923603;29;20504;-85
2023/03/29 04:01:08;;;;;;;7.88;4.32;;;;;;;1.15;76.42;101108.13;4922839;29;20531;-85
2023/03/29 04:03:34;;;;;;;8.32;4.50;;;;;;;1.07;76.73;101108.56;4911284;29;20063;-84
2023/03/29 04:06:02;;;;;;;7.05;4.63;;;;;;;1.31;76.82;101123.97;4933768;29;20043;-84
2023/03/29 04:08:27;;;;;;;8.13;4.72;;;;;;;1.32;76.98;101126.53;4926935;29;20047;-83
2023/03/29 04:10:55;;;;;;;9.53;4.73;;;;;;;1.34;77.07;101126.44;4922329;29;20385;-83
2023/03/29 04:13:21;;;;;;;17.42;6.30;;;;;;;1.32;77.16;101134.47;4922535;29;20806;-84
2023/03/29 04:15:48;;;;;;;7.75;4.68;;;;;;;1.31;76.77;101127.50;4926754;29;20043;-84
2023/03/29 04:18:18;;;;;;;9.52;5.05;;;;;;;1.27;76.57;101118.00;4935708;29;20044;-84
2023/03/29 04:20:46;;;;;;;9.15;5.20;;;;;;;1.44;76.83;101141.69;4922321;29;20059;-83
2023/03/29 04:23:11;;;;;;;11.48;6.07;;;;;;;1.50;76.72;101142.28;4924420;29;20111;-85
2023/03/29 04:25:40;;;;;;;13.20;5.75;;;;;;;1.53;76.69;101137.66;4916827;29;20058;-82
2023/03/29 04:28:09;;;;;;;15.30;5.57;;;;;;;1.61;75.61;101127.44;4943664;29;20064;-83
2023/03/29 04:30:35;;;;;;;9.32;5.85;;;;;;;1.67;75.12;101147.44;4922767;29;20063;-83
2023/03/29 04:33:00;;;;;;;10.57;6.00;;;;;;;1.52;75.71;101153.63;4925206;29;20452;-84
2023/03/29 04:35:26;;;;;;;11.55;6.20;;;;;;;1.54;75.79;101162.34;4927917;29;20344;-85
2023/03/29 04:37:53;;;;;;;10.75;6.47;;;;;;;1.53;75.41;101158.00;4928949;29;20089;-84
2023/03/29 04:40:20;;;;;;;13.80;6.05;;;;;;;1.75;75.09;101176.97;4928083;29;20162;-85
2023/03/29 04:42:46;;;;;;;19.77;6.38;;;;;;;1.72;74.90;101171.88;4907510;29;20046;-83
2023/03/29 04:45:13;;;;;;;;;;;;;;;1.60;75.11;101170.81;4930829;29;20127;-83
2023/03/29 04:47:44;;;;;;;9.65;6.30;;;;;;;1.42;75.02;101164.78;4931134;29;19921;-85
2023/03/29 04:50:09;;;;;;;11.23;5.80;;;;;;;1.59;74.87;101170.88;4931367;29;20059;-84
2023/03/29 04:52:35;;;;;;;8.88;5.72;;;;;;;1.48;74.97;101171.53;4911744;29;20047;-85
2023/03/29 04:55:01;;;;;;;8.90;6.00;;;;;;;1.56;75.37;101186.97;4930965;29;20135;-86
2023/03/29 04:57:27;;;;;;;11.02;6.78;;;;;;;1.61;75.30;101188.41;4923065;29;20044;-85
2023/03/29 04:59:53;;;;;;;7.85;5.13;;;;;;;1.59;75.04;101197.38;4923741;29;20133;-84
2023/03/29 05:02:19;;;;;;;;;;;;;;;1.59;75.05;101198.28;4925391;29;21508;-86
2023/03/29 05:04:46;;;;;;;;;;;;;;;1.82;74.60;101202.19;4926876;29;19944;-85
2023/03/29 05:07:14;;;;;;;9.27;5.25;;;;;;;1.80;74.69;101190.84;4929332;29;20017;-85
2023/03/29 05:09:42;;;;;;;16.25;5.38;;;;;;;1.78;74.10;101205.97;4934605;29;20039;-87
2023/03/29 05:12:10;;;;;;;8.10;5.20;;;;;;;1.58;74.56;101185.94;4929416;29;20493;-86
2023/03/29 05:14:37;;;;;;;12.38;5.78;;;;;;;1.83;74.20;101205.72;4915979;29;20058;-84
2023/03/29 05:17:06;;;;;;;9.07;6.00;;;;;;;2.07;74.61;101208.69;4922396;29;20063;-84
2023/03/29 05:19:35;;;;;;;12.15;5.88;;;;;;;2.14;73.15;101199.41;4897803;29;20048;-87
2023/03/29 05:22:04;;;;;;;8.48;6.05;;;;;;;2.32;72.88;101185.00;4928909;29;20040;-85
2023/03/29 05:24:30;;;;;;;11.02;6.35;;;;;;;2.37;72.82;101189.19;4918328;29;20050;-85
2023/03/29 05:26:56;;;;;;;13.60;6.60;;;;;;;2.41;72.09;101177.41;4927000;29;20044;-84
2023/03/29 05:29:26;;;;;;;8.63;5.90;;;;;;;2.50;71.44;101187.44;4896465;29;20052;-85
2023/03/29 05:31:52;;;;;;;12.23;5.60;;;;;;;2.74;70.76;101207.16;4921534;29;20183;-85
2023/03/29 05:34:19;;;;;;;12.13;6.43;;;;;;;2.91;70.99;101221.16;4924330;29;20130;-84
2023/03/29 05:36:45;;;;;;;12.20;5.25;;;;;;;3.65;67.76;101214.53;4912087;29;20048;-85
2023/03/29 05:39:11;;;;;;;12.07;5.80;;;;;;;5.80;62.39;101217.84;4895762;29;20054;-85
2023/03/29 05:41:38;;;;;;;8.05;4.80;;;;;;;6.67;57.93;101238.78;4912758;29;20432;-86
2023/03/29 05:44:05;;;;;;;7.28;4.00;;;;;;;7.79;53.37;101221.63;4928723;29;20099;-86
2023/03/29 05:46:30;;;;;;;5.82;4.00;;;;;;;8.60;49.72;101201.25;4929372;29;20044;-85
2023/03/29 05:48:56;;;;;;;8.30;4.28;;;;;;;8.81;48.59;101227.19;4895534;29;20080;-86
2023/03/29 05:51:23;;;;;;;8.20;3.97;;;;;;;10.05;46.40;101201.56;4949374;29;20465;-87
2023/03/29 05:53:50;;;;;;;6.10;3.42;;;;;;;10.67;42.99;101227.00;4915591;29;20039;-86
2023/03/29 05:56:17;;;;;;;5.97;3.63;;;;;;;10.35;43.86;101225.56;4923980;29;20469;-86
2023/03/29 05:58:45;;;;;;;7.93;3.50;;;;;;;8.90;46.40;101228.16;4927850;29;20098;-86
2023/03/29 06:01:17;;;;;;;10.13;3.80;;;;;;;7.28;49.85;101201.78;4932808;29;20062;-85
2023/03/29 06:03:46;;;;;;;12.13;3.70;;;;;;;6.48;52.39;101240.22;4929903;29;20527;-86
2023/03/29 06:06:15;;;;;;;5.30;3.35;;;;;;;5.79;54.20;101232.19;4914329;29;20035;-89
2023/03/29 06:08:40;;;;;;;6.30;3.90;;;;;;;6.44;53.64;101245.94;4912606;29;20135;-84
2023/03/29 06:11:09;;;;;;;9.13;4.03;;;;;;;6.97;52.50;101232.81;4926305;29;20464;-84
2023/03/29 06:13:37;;;;;;;7.70;4.25;;;;;;;7.85;50.64;101236.31;4926474;29;20475;-87
2023/03/29 06:16:05;;;;;;;9.23;3.63;;;;;;;8.01;49.17;101226.03;4922659;29;20040;-87
2023/03/29 06:18:35;;;;;;;5.80;3.75;;;;;;;8.17;48.51;101255.88;4928424;29;20067;-85
2023/03/29 06:21:03;;;;;;;7.13;4.00;;;;;;;7.87;48.47;101226.34;4927038;29;20039;-84
2023/03/29 06:23:29;;;;;;;10.35;4.18;;;;;;;8.20;48.32;101252.91;4889918;29;20078;-84
2023/03/29 06:25:55;;;;;;;11.75;4.78;;;;;;;8.37;48.15;101254.16;4920970;29;20066;-86
2023/03/29 06:28:23;;;;;;;4.72;3.22;;;;;;;7.71;48.46;101250.88;4923701;29;20548;-86
2023/03/29 06:30:55;;;;;;;6.70;3.45;;;;;;;8.30;48.08;101270.88;4925302;29;20436;-90
2023/03/29 06:33:24;;;;;;;8.68;3.63;;;;;;;8.18;47.56;101228.09;4896548;29;20045;-89
2023/03/29 06:35:51;;;;;;;6.63;3.85;;;;;;;8.07;47.75;101244.22;4931481;29;20110;-86
2023/03/29 06:38:20;;;;;;;6.70;3.33;;;;;;;8.70;46.80;101267.47;4928002;29;20445;-89
2023/03/29 06:40:47;;;;;;;4.85;3.17;;;;;;;8.75;46.96;101259.88;4927748;29;20416;-90
2023/03/29 06:43:13;;;;;;;6.55;3.20;;;;;;;8.23;46.65;101258.00;4899921;29;20070;-87
2023/03/29 06:45:40;;;;;;;5.50;3.10;;;;;;;8.12;46.83;101244.69;4903402;29;20129;-87
2023/03/29 06:48:06;;;;;;;6.90;3.25;;;;;;;8.25;48.70;101248.00;4922135;29;20043;-89
2023/03/29 06:50:33;;;;;;;6.35;3.80;;;;;;;8.83;46.03;101281.50;4927019;29;20043;-87
2023/03/29 06:53:02;;;;;;;8.65;3.50;;;;;;;9.40;44.38;101271.09;4928549;29;20048;-90
2023/03/29 06:55:28;;;;;;;5.82;3.40;;;;;;;8.95;45.19;101279.59;4942356;29;20040;-88
2023/03/29 06:57:54;;;;;;;9.98;3.47;;;;;;;9.55;43.81;101244.69;4923713;29;20143;-88
2023/03/29 07:00:29;;;;;;;5.90;3.10;;;;;;;9.98;42.46;101256.88;4922966;29;20067;-91
2023/03/29 07:02:57;;;;;;;5.53;3.08;;;;;;;9.45;43.50;101271.53;4900747;29;20063;-90
2023/03/29 07:05:29;;;;;;;7.57;3.40;;;;;;;9.79;42.56;101234.41;4910053;29;20068;-89
2023/03/29 07:10:31;;;;;;;6.70;3.90;;;;;;;8.83;44.61;101262.75;4933298;29;20067;-89
2023/03/29 07:13:00;;;;;;;6.25;3.47;;;;;;;9.37;44.13;101253.44;4908273;29;20043;-89
2023/03/29 07:15:30;;;;;;;8.30;3.45;;;;;;;9.93;42.68;101268.88;4920907;29;20051;-87
2023/03/29 07:17:58;;;;;;;6.90;3.22;;;;;;;10.14;42.52;101279.47;4895726;29;20055;-88
2023/03/29 07:20:25;;;;;;;9.00;4.03;;;;;;;10.46;41.48;101289.06;4891330;29;20587;-86
2023/03/29 07:22:51;;;;;;;6.18;3.42;;;;;;;10.46;40.25;101288.22;4927886;28;20035;-89
2023/03/29 07:25:17;;;;;;;6.20;3.80;;;;;;;10.86;41.56;101287.09;4934539;29;20047;-88
2023/03/29 07:28:02;;;;;;;8.90;4.13;;;;;;;11.27;38.82;101293.84;4921444;29;20051;-89
2023/03/29 07:30:29;;;;;;;7.80;3.53;;;;;;;11.87;38.07;101296.06;4915669;29;20074;-90
2023/03/29 07:32:58;;;;;;;4.63;3.30;;;;;;;10.42;38.93;101289.50;4896827;29;20068;-91
2023/03/29 07:35:26;;;;;;;9.85;3.20;;;;;;;10.05;39.26;101300.97;4935300;29;20047;-90
2023/03/29 07:37:53;;;;;;;6.90;3.17;;;;;;;9.54;41.49;101286.81;4933538;29;20579;-88
2023/03/29 07:40:25;;;;;;;8.77;3.60;;;;;;;9.49;42.26;101264.91;4915983;29;20059;-87
2023/03/29 07:42:52;;;;;;;8.25;3.45;;;;;;;9.75;41.54;101289.38;4931877;29;20155;-90
2023/03/29 07:45:19;;;;;;;9.82;4.20;;;;;;;10.15;41.25;101280.31;4933885;29;20040;-84
2023/03/29 07:47:48;;;;;;;;;;;;;;;11.14;40.44;101299.59;4924832;29;20494;-86
2023/03/29 07:50:18;;;;;;;9.93;4.15;;;;;;;12.28;38.16;101298.25;4934908;29;19965;-86
2023/03/29 07:52:44;;;;;;;4.50;3.00;;;;;;;12.85;36.64;101286.00;4941365;29;20056;-92
2023/03/29 07:55:12;;;;;;;6.13;3.20;;;;;;;12.95;34.97;101260.75;4928806;29;20114;-90
2023/03/29 07:57:43;;;;;;;6.40;3.58;;;;;;;13.06;34.69;101268.53;4930721;29;20062;-88
2023/03/29 08:00:15;;;;;;;6.05;3.50;;;;;;;13.60;34.20;101298.81;4934779;29;20066;-92
2023/03/29 08:02:43;;;;;;;7.18;3.50;;;;;;;12.84;34.30;101268.09;4927482;29;20500;-89
2023/03/29 08:05:13;;;;;;;7.38;4.10;;;;;;;13.25;34.58;101297.13;4918491;29;20098;-91
2023/03/29 08:07:41;;;;;;;8.73;3.60;;;;;;;12.88;35.13;101274.88;4928616;29;20043;-90
2023/03/29 08:10:14;;;;;;;5.63;3.50;;;;;;;14.18;32.38;101288.88;4923520;29;20036;-91
2023/03/29 08:12:40;;;;;;;7.00;3.60;;;;;;;14.93;31.62;101299.44;4935488;29;20047;-91
2023/03/29 08:15:09;;;;;;;9.95;5.35;;;;;;;15.05;30.47;101283.66;4931848;29;20035;-93
2023/03/29 08:17:40;;;;;;;8.60;6.10;;;;;;;14.93;31.26;101290.47;4953866;29;20071;-91
2023/03/29 08:20:10;;;;;;;7.78;4.25;;;;;;;13.79;32.73;101300.38;4935738;29;20043;-90
2023/03/29 08:22:38;;;;;;;18.08;10.77;;;;;;;15.40;30.60;101293.19;4952538;28;20055;-92
2023/03/29 08:25:04;;;;;;;11.98;7.82;;;;;;;15.46;28.79;101296.19;4952830;28;20028;-90
2023/03/29 08:27:31;;;;;;;7.05;3.58;;;;;;;14.92;29.26;101295.06;4896215;29;20056;-91
2023/03/29 08:29:58;;;;;;;8.75;5.38;;;;;;;15.06;29.18;101288.06;4912871;29;20048;-93
2023/03/29 08:32:28;;;;;;;11.07;4.95;;;;;;;14.04;29.90;101289.56;4931976;29;20134;-92
2023/03/29 08:35:15;;;;;;;16.08;10.02;;;;;;;15.03;29.37;101282.16;4928696;29;20138;-90
2023/03/29 08:37:42;;;;;;;14.93;9.10;;;;;;;14.95;29.52;101288.44;4929108;29;20048;-90
2023/03/29 08:40:09;;;;;;;;;;;;;;;15.03;28.51;101287.56;4937165;29;20039;-88
2023/03/29 08:43:04;;;;;;;9.90;6.22;;;;;;;14.14;29.37;101287.53;4931686;29;19919;-91
2023/03/29 08:46:07;;;;;;;6.10;3.90;;;;;;;15.55;27.50;101276.16;4922003;29;20070;-91
2023/03/29 08:48:57;;;;;;;10.63;3.78;;;;;;;14.39;28.46;101272.13;4874266;29;20128;-90
2023/03/29 08:51:31;;;;;;;5.18;3.63;;;;;;;14.62;28.94;101285.00;4925279;29;20063;-89
2023/03/29 08:54:14;;;;;;;5.55;3.40;;;;;;;14.06;28.51;101257.78;4923454;29;20052;-88
2023/03/29 08:56:46;;;;;;;6.78;3.70;;;;;;;15.55;28.42;101268.88;4927105;29;20044;-90
2023/03/29 08:59:43;;;;;;;5.07;3.30;;;;;;;13.98;29.52;101274.88;4918293;29;20134;-89
2023/03/29 09:02:22;;;;;;;6.45;3.78;;;;;;;14.50;29.71;101250.13;4926526;29;20056;-89
2023/03/29 09:04:54;;;;;;;4.47;3.55;;;;;;;15.56;28.36;101275.13;4901257;29;20050;-91
2023/03/29 09:07:21;;;;;;;8.15;4.72;;;;;;;17.76;25.95;101271.16;4926479;29;20047;-89
2023/03/29 09:09:49;;;;;;;;;;;;;;;20.69;22.61;101271.69;4932436;29;20044;-89
2023/03/29 09:12:15;;;;;;;5.88;3.90;;;;;;;19.73;22.86;101273.72;4931364;29;19959;-90
2023/03/29 09:14:48;;;;;;;5.72;3.97;;;;;;;17.61;24.96;101283.97;4933805;29;20043;-91
2023/03/29 09:17:37;;;;;;;6.15;3.72;;;;;;;16.98;24.77;101243.69;4938896;29;20043;-90
2023/03/29 09:20:30;;;;;;;10.52;4.25;;;;;;;16.84;26.10;101277.13;4924355;29;20051;-86
2023/03/29 09:23:09;;;;;;;6.22;3.85;;;;;;;14.64;28.58;101291.09;4931497;29;20035;-91
2023/03/29 09:25:47;;;;;;;5.75;3.53;;;;;;;14.03;29.42;101264.38;4935335;29;20057;-91
2023/03/29 09:28:33;;;;;;;6.45;3.70;;;;;;;15.93;27.95;101278.97;4926751;29;20062;-91
2023/03/29 09:31:11;;;;;;;16.88;5.07;;;;;;;16.96;26.63;101272.91;4939318;29;20062;-90
2023/03/29 09:34:02;;;;;;;7.55;4.15;;;;;;;16.09;27.05;101286.16;4934350;29;20044;-92
2023/03/29 09:37:39;;;;;;;8.70;4.20;;;;;;;16.58;26.53;101266.72;4944925;29;20134;-95
2023/03/29 09:43:09;;;;;;;15.57;4.70;;;;;;;14.24;29.91;101257.63;5317011;23;20149;-92
2023/03/29 09:45:44;;;;;;;6.25;3.67;;;;;;;13.30;32.87;101262.44;5039277;23;20035;-92
2023/03/29 09:48:20;;;;;;;9.27;3.78;;;;;;;11.70;35.81;101288.75;4953235;29;20052;-93
2023/03/29 09:54:00;;;;;;;6.22;4.35;;;;;;;14.03;29.78;101253.56;5282284;23;20555;-89
2023/03/29 09:56:27;;;;;;;4.78;3.47;;;;;;;16.45;26.28;101280.91;4920736;29;20496;-95
2023/03/29 09:58:56;;;;;;;6.25;3.50;;;;;;;17.68;25.21;101277.56;4933937;29;20054;-92
2023/03/29 10:01:31;;;;;;;6.10;4.10;;;;;;;15.17;28.10;101274.16;4925304;29;20082;-91
2023/03/29 10:04:00;;;;;;;5.90;3.85;;;;;;;13.78;30.04;101274.34;4921628;29;20133;-89
2023/03/29 10:06:28;;;;;;;7.68;3.95;;;;;;;16.00;27.52;101293.50;4946528;29;20134;-89
2023/03/29 10:08:56;;;;;;;6.80;3.65;;;;;;;18.72;23.50;101279.72;4931511;29;20039;-90
2023/03/29 10:11:31;;;;;;;4.78;3.47;;;;;;;19.24;21.98;101273.97;4920372;29;20050;-88
2023/03/29 10:14:12;;;;;;;4.95;3.20;;;;;;;20.67;19.90;101260.94;4952713;29;20043;-87
2023/03/29 10:16:40;;;;;;;8.73;3.17;;;;;;;22.68;18.00;101258.72;4915394;29;20114;-88
2023/03/29 10:19:45;;;;;;;4.80;3.42;;;;;;;20.87;19.78;101264.47;4935675;29;20046;-91
2023/03/29 10:22:26;;;;;;;7.80;3.22;;;;;;;19.54;20.49;101237.13;4834478;29;20057;-90
2023/03/29 10:24:54;;;;;;;12.40;3.60;;;;;;;21.45;18.85;101224.53;4826020;29;20064;-90
2023/03/29 10:27:23;;;;;;;4.80;2.90;;;;;;;19.78;18.48;101237.63;4840341;29;20469;-88
2023/03/29 10:29:49;;;;;;;4.43;2.97;;;;;;;20.81;18.92;101265.34;4838723;29;20053;-88
2023/03/29 10:32:21;;;;;;;6.80;3.17;;;;;;;18.75;20.08;101271.19;4884502;29;20132;-91
2023/03/29 10:34:48;;;;;;;9.63;2.72;;;;;;;15.99;23.31;101289.09;4949877;29;20114;-92
2023/03/29 10:37:27;;;;;;;4.88;2.65;;;;;;;14.64;24.78;101288.38;4940065;29;20078;-91
2023/03/29 10:40:03;;;;;;;7.28;3.20;;;;;;;12.97;27.84;101283.84;4956463;29;20049;-93
2023/03/29 10:42:45;;;;;;;4.00;2.90;;;;;;;12.42;29.14;101273.41;4932199;29;20059;-88
2023/03/29 10:45:38;;;;;;;5.15;3.08;;;;;;;11.57;30.62;101268.44;4913465;29;20058;-91
2023/03/29 10:48:06;;;;;;;5.68;3.70;;;;;;;11.18;32.00;101289.38;4935099;29;20051;-90
2023/03/29 10:50:39;;;;;;;5.63;3.38;;;;;;;10.52;33.35;101283.09;4935887;29;20055;-91
2023/03/29 10:53:14;;;;;;;5.63;3.88;;;;;;;12.27;31.08;101285.75;4948412;28;20058;-92
2023/03/29 10:56:18;;;;;;;4.93;3.25;;;;;;;15.22;27.95;101280.88;4914715;28;20086;-91
2023/03/29 10:59:13;;;;;;;4.95;3.70;;;;;;;14.32;28.54;101280.06;4933987;29;20075;-92
2023/03/29 11:01:45;;;;;;;;;;;;;;;13.80;28.14;101271.47;4954816;29;20111;-92
2023/03/29 11:04:35;;;;;;;5.30;3.22;;;;;;;16.77;24.88;101240.88;4951900;29;20287;-92
2023/03/29 11:07:21;;;;;;;4.40;2.90;;;;;;;15.26;25.97;101250.56;4951669;29;20048;-94
2023/03/29 11:10:05;;;;;;;7.68;3.85;;;;;;;13.52;27.76;101256.38;4954934;29;20067;-91
2023/03/29 11:12:53;;;;;;;4.00;2.65;;;;;;;12.22;28.67;101257.44;4954256;29;20043;-91
2023/03/29 11:15:46;;;;;;;5.75;2.60;;;;;;;10.21;31.62;101271.69;4922657;29;20040;-88
2023/03/29 11:18:46;;;;;;;6.45;2.30;;;;;;;8.57;35.05;101276.59;4920937;29;20102;-92
2023/03/29 11:21:44;;;;;;;6.55;1.98;;;;;;;8.28;35.92;101302.31;4962850;29;20103;-89
2023/03/29 11:24:34;;;;;;;10.82;2.50;;;;;;;8.17;36.23;101296.06;4954503;29;20122;-93
2023/03/29 11:27:38;;;;;;;6.10;2.40;;;;;;;7.60;36.79;101289.22;4939394;29;20485;-93
2023/03/29 11:30:57;;;;;;;5.32;2.45;;;;;;;7.73;36.73;101286.38;4958213;29;20479;-92
2023/03/29 11:33:44;;;;;;;4.53;2.60;;;;;;;9.67;34.43;101291.91;4939096;29;20054;-92
2023/03/29 11:36:21;;;;;;;5.70;2.70;;;;;;;11.01;32.03;101271.34;4939684;29;20069;-92
2023/03/29 11:39:34;;;;;;;6.25;2.90;;;;;;;11.64;31.22;101267.84;4941728;29;20043;-93
2023/03/29 11:42:23;;;;;;;5.35;2.58;;;;;;;12.61;27.35;101254.31;4847574;29;20085;-94
2023/03/29 11:44:51;;;;;;;3.90;2.00;;;;;;;12.64;24.04;101223.47;4935919;29;20043;-91
2023/03/29 11:47:21;;;;;;;2.70;1.25;;;;;;;12.07;23.45;101253.59;4924589;29;20039;-92
2023/03/29 11:50:12;;;;;;;5.45;1.70;;;;;;;12.30;23.46;101228.84;4951621;29;20111;-89
2023/03/29 11:52:55;;;;;;;2.90;1.80;;;;;;;11.81;23.58;101235.50;4927562;29;20115;-90
2023/03/29 11:55:28;;;;;;;4.20;1.90;;;;;;;11.66;24.74;101250.53;4928608;29;20062;-89
2023/03/29 11:58:11;;;;;;;3.70;2.25;;;;;;;11.69;27.05;101270.94;4917412;29;20047;-90
2023/03/29 12:01:01;;;;;;;5.50;3.10;;;;;;;10.91;28.99;101241.78;4918473;29;20115;-93
2023/03/29 12:04:00;;;;;;;5.50;2.85;;;;;;;10.41;30.99;101263.63;4938430;29;20040;-92